Weather at Ulcinj Airport [CLOSED]

Public forecast

Using degrees Celsius for public forecast. Weather courtesy of forecast.io.

Closest aviation weather report (METAR) to Ulcinj Airport

Closest report is Podgorica Airport / Podgorica Golubovci Airbase, 28.5 nm (52.8 km) N.

2023/03/28 15:30 (retrieved 32 minutes ago)

LYPG 281530Z 35015KT 9999 SCT040 11/M13 Q1020 NOSIG

Closest aviation forecast (TAF) to Ulcinj Airport

Closest forecast is Podgorica Airport / Podgorica Golubovci Airbase, 28.5 nm (52.8 km) N.

2023/03/28 12:25 (retrieved 4 hours ago)

TAF LYPG 281100Z 2812/2912 36015KT 9999 FEW040 TX15/2912Z TN02/2905Z TEMPO 2812/2818 02015G30KT BECMG 2820/2822 36005KT